Time;durP1;ratioP1;P1;durP2;ratioP2;P2;SDS_P1;SDS_P2;PMS_P1;PMS_P2;Temp;Humidity;BMP_temperature;BMP_pressure;BME280_temperature;BME280_humidity;BME280_pressure;Samples;Min_cycle;Max_cycle;Signal;HPM_P1;HPM_P2
2024/01/17 00:00:21;;;;;;;11.50;7.00;;;-0.80;99.90;;;;;;5054935;28;20496;-60
2024/01/17 00:02:49;;;;;;;13.90;7.40;;;-0.70;99.90;;;;;;5055574;28;20450;-60
2024/01/17 00:05:16;;;;;;;9.10;7.77;;;-0.70;99.90;;;;;;5055253;28;20890;-60
2024/01/17 00:07:43;;;;;;;13.37;8.40;;;-0.60;99.90;;;;;;5054704;28;20530;-61
2024/01/17 00:10:10;;;;;;;12.33;8.20;;;-0.60;99.90;;;;;;5054729;28;20466;-60
2024/01/17 00:12:37;;;;;;;13.30;7.97;;;-0.60;99.90;;;;;;5054462;28;20502;-61
2024/01/17 00:15:04;;;;;;;11.13;8.13;;;-0.50;99.90;;;;;;5054328;28;20467;-60
2024/01/17 00:17:31;;;;;;;10.10;7.10;;;-0.60;99.90;;;;;;5054477;28;20453;-61
2024/01/17 00:19:59;;;;;;;17.80;10.10;;;-0.50;99.90;;;;;;5054030;28;20500;-60
2024/01/17 00:22:26;;;;;;;9.27;7.50;;;-0.50;99.90;;;;;;5054031;28;20464;-60
2024/01/17 00:24:52;;;;;;;11.30;8.10;;;-0.40;99.90;;;;;;5054259;28;20449;-60
2024/01/17 00:27:23;;;;;;;10.23;7.70;;;-0.40;99.90;;;;;;5054231;28;20445;-60
2024/01/17 00:29:51;;;;;;;16.77;9.53;;;-0.40;99.90;;;;;;5054148;28;20461;-60
2024/01/17 00:32:18;;;;;;;17.17;9.93;;;-0.30;99.90;;;;;;5054049;28;20453;-60
2024/01/17 00:34:45;;;;;;;13.27;8.40;;;-0.20;99.90;;;;;;5053965;28;20446;-60
2024/01/17 00:37:13;;;;;;;10.70;8.17;;;-0.20;99.90;;;;;;5053972;28;20964;-60
2024/01/17 00:39:39;;;;;;;12.53;8.63;;;-0.10;99.90;;;;;;5053605;28;20488;-60
2024/01/17 00:42:06;;;;;;;11.80;7.13;;;-0.10;99.90;;;;;;5053843;28;20811;-60
2024/01/17 00:44:33;;;;;;;10.50;8.03;;;0.00;99.90;;;;;;5054009;28;20454;-60
2024/01/17 00:46:59;;;;;;;17.37;8.53;;;0.00;99.90;;;;;;5053807;28;20445;-60
2024/01/17 00:49:26;;;;;;;17.73;9.60;;;0.00;99.90;;;;;;5053388;28;20441;-60
2024/01/17 00:51:53;;;;;;;26.83;8.97;;;0.10;99.90;;;;;;5053524;28;20465;-60
2024/01/17 00:54:21;;;;;;;12.90;8.57;;;0.00;99.90;;;;;;5053796;28;20429;-60
2024/01/17 00:56:47;;;;;;;12.60;8.60;;;0.10;99.90;;;;;;5053236;28;20453;-60
2024/01/17 00:59:14;;;;;;;14.40;9.40;;;0.20;99.90;;;;;;5052925;28;20480;-60
2024/01/17 01:01:41;;;;;;;10.80;7.80;;;0.20;99.90;;;;;;5053451;28;20445;-60
2024/01/17 01:04:09;;;;;;;9.90;8.03;;;0.20;99.90;;;;;;5053614;28;20446;-60
2024/01/17 01:06:36;;;;;;;15.03;7.67;;;0.20;99.90;;;;;;5053585;28;20441;-60
2024/01/17 01:09:02;;;;;;;10.20;8.73;;;0.30;99.90;;;;;;5053538;28;20441;-60
2024/01/17 01:11:32;;;;;;;11.37;8.63;;;0.30;99.90;;;;;;5053232;28;20998;-60
2024/01/17 01:13:59;;;;;;;12.80;7.30;;;0.30;99.90;;;;;;5053498;28;20451;-60
2024/01/17 01:16:26;;;;;;;12.97;8.93;;;0.30;99.70;;;;;;5053631;28;20445;-60
2024/01/17 01:18:52;;;;;;;13.57;8.80;;;0.30;99.60;;;;;;5054035;28;20481;-60
2024/01/17 01:21:19;;;;;;;11.40;8.00;;;0.30;99.40;;;;;;5053762;28;20536;-61
2024/01/17 01:23:47;;;;;;;14.17;8.53;;;0.30;99.40;;;;;;5053979;28;20442;-60
2024/01/17 01:26:14;;;;;;;16.50;7.63;;;0.30;99.40;;;;;;5053642;28;20454;-60
2024/01/17 01:28:42;;;;;;;14.30;8.10;;;0.30;99.40;;;;;;5053909;28;20441;-60
2024/01/17 01:31:09;;;;;;;12.73;8.43;;;0.30;99.50;;;;;;5053415;28;20472;-60
2024/01/17 01:33:36;;;;;;;12.67;8.50;;;0.20;99.40;;;;;;5053621;28;20453;-60
2024/01/17 01:36:02;;;;;;;13.77;8.30;;;0.20;99.40;;;;;;5056104;28;20955;-60
2024/01/17 01:38:29;;;;;;;10.47;6.83;;;0.20;99.30;;;;;;5057518;28;20481;-60
2024/01/17 01:40:58;;;;;;;12.93;8.13;;;0.20;99.30;;;;;;5057392;28;20473;-60
2024/01/17 01:43:25;;;;;;;16.10;8.30;;;0.20;99.40;;;;;;5057201;28;20922;-60
2024/01/17 01:46:13;;;;;;;13.73;8.27;;;0.20;99.40;;;;;;5057373;28;20448;-60
2024/01/17 01:48:42;;;;;;;12.13;8.00;;;0.20;99.40;;;;;;5057391;28;20473;-60
2024/01/17 01:51:10;;;;;;;12.80;7.40;;;0.20;99.50;;;;;;5058085;28;20830;-60
2024/01/17 01:53:38;;;;;;;14.87;7.97;;;0.10;99.60;;;;;;5057095;28;20897;-60
2024/01/17 01:56:07;;;;;;;14.83;8.37;;;0.10;99.70;;;;;;5057140;28;20441;-60
2024/01/17 01:58:36;;;;;;;11.10;6.87;;;0.10;99.90;;;;;;5057196;28;20473;-60
2024/01/17 02:01:06;;;;;;;12.50;7.57;;;0.10;99.90;;;;;;5056859;28;20461;-60
2024/01/17 02:03:33;;;;;;;16.63;9.80;;;0.10;99.90;;;;;;5056931;28;20448;-60
2024/01/17 02:06:01;;;;;;;12.90;7.50;;;0.10;99.90;;;;;;5056829;28;20842;-60
2024/01/17 02:08:28;;;;;;;11.13;8.10;;;0.10;99.90;;;;;;5056818;28;20528;-60
2024/01/17 02:10:56;;;;;;;10.63;7.07;;;0.10;99.90;;;;;;5056409;28;21034;-60
2024/01/17 02:13:22;;;;;;;8.73;7.20;;;0.10;99.90;;;;;;5056728;28;20445;-60
2024/01/17 02:15:49;;;;;;;10.73;7.40;;;0.10;99.90;;;;;;5056741;28;20433;-60
2024/01/17 02:18:17;;;;;;;12.53;7.20;;;0.10;99.90;;;;;;5057365;28;20445;-60
2024/01/17 02:20:44;;;;;;;10.50;7.10;;;0.10;99.90;;;;;;5056735;28;20489;-60
2024/01/17 02:23:24;;;;;;;12.17;7.47;;;0.10;99.90;;;;;;5056529;28;20449;-59
2024/01/17 02:25:54;;;;;;;11.67;7.40;;;0.10;99.90;;;;;;5056114;28;20815;-60
2024/01/17 02:28:20;;;;;;;11.43;7.23;;;0.10;99.90;;;;;;5056575;28;20821;-59
2024/01/17 02:30:47;;;;;;;11.53;7.67;;;0.10;99.90;;;;;;5056170;28;20458;-59
2024/01/17 02:33:14;;;;;;;8.30;6.60;;;0.10;99.90;;;;;;5056258;28;20441;-59
2024/01/17 02:35:42;;;;;;;11.23;6.80;;;0.10;99.90;;;;;;5056238;28;20453;-59
2024/01/17 02:38:09;;;;;;;11.27;6.87;;;0.10;99.90;;;;;;5056445;28;20452;-59
2024/01/17 02:40:36;;;;;;;12.27;7.20;;;0.10;99.90;;;;;;5056058;28;20493;-59
2024/01/17 02:43:04;;;;;;;12.17;7.83;;;0.10;99.90;;;;;;5056262;28;20445;-59
2024/01/17 02:45:31;;;;;;;10.83;7.70;;;0.10;99.90;;;;;;5055901;28;20442;-60
2024/01/17 02:47:58;;;;;;;14.47;7.27;;;0.00;99.90;;;;;;5055777;28;20947;-60
2024/01/17 02:50:25;;;;;;;12.17;7.50;;;0.00;99.90;;;;;;5055881;28;20469;-59
2024/01/17 02:52:53;;;;;;;11.30;7.07;;;0.00;99.90;;;;;;5055631;28;20881;-60
2024/01/17 02:55:20;;;;;;;11.77;7.40;;;0.00;99.90;;;;;;5055636;28;20993;-60
2024/01/17 02:57:47;;;;;;;14.90;8.03;;;0.00;99.90;;;;;;5055976;28;20456;-60
2024/01/17 03:00:15;;;;;;;13.27;7.10;;;0.00;99.90;;;;;;5055568;28;20519;-60
2024/01/17 03:02:42;;;;;;;13.47;8.60;;;0.00;99.90;;;;;;5055648;28;20450;-60
2024/01/17 03:05:10;;;;;;;16.67;9.60;;;0.00;99.90;;;;;;5055769;28;20448;-60
2024/01/17 03:07:36;;;;;;;14.83;8.90;;;0.00;99.90;;;;;;5055718;28;20452;-60
2024/01/17 03:10:04;;;;;;;12.43;7.83;;;0.00;99.90;;;;;;5055220;28;20461;-60
2024/01/17 03:12:30;;;;;;;14.70;9.17;;;0.00;99.90;;;;;;5055557;28;20848;-60
2024/01/17 03:14:57;;;;;;;14.57;8.37;;;0.00;99.90;;;;;;5055533;28;20445;-59
2024/01/17 03:17:26;;;;;;;14.00;8.23;;;0.00;99.90;;;;;;5055355;28;20448;-59
2024/01/17 03:19:54;;;;;;;16.30;9.00;;;0.00;99.90;;;;;;5055316;28;20538;-60
2024/01/17 03:22:20;;;;;;;8.97;7.13;;;0.00;99.90;;;;;;5055348;28;20458;-60
2024/01/17 03:24:47;;;;;;;11.37;8.03;;;0.00;99.90;;;;;;5055345;28;20445;-60
2024/01/17 03:27:14;;;;;;;10.53;7.83;;;-0.10;99.90;;;;;;5055252;28;20503;-60
2024/01/17 03:29:40;;;;;;;12.50;7.80;;;-0.10;99.90;;;;;;5055134;28;20515;-59
2024/01/17 03:32:07;;;;;;;13.50;7.87;;;-0.10;99.90;;;;;;5055142;28;20473;-60
2024/01/17 03:34:35;;;;;;;11.17;7.60;;;-0.10;99.90;;;;;;5054786;28;20451;-59
2024/01/17 03:37:02;;;;;;;11.93;8.90;;;0.00;99.90;;;;;;5055115;28;20445;-59
2024/01/17 03:39:29;;;;;;;13.20;7.70;;;0.00;99.90;;;;;;5054910;28;20513;-59
2024/01/17 03:41:55;;;;;;;13.03;7.57;;;-0.10;99.90;;;;;;5054987;28;20454;-59
2024/01/17 03:44:23;;;;;;;10.90;7.00;;;0.00;99.90;;;;;;5054545;28;20804;-59
2024/01/17 03:46:49;;;;;;;19.73;8.37;;;0.00;99.90;;;;;;5055613;28;20449;-59
2024/01/17 03:49:16;;;;;;;10.53;7.17;;;-0.10;99.90;;;;;;5054516;28;20963;-59
2024/01/17 03:51:44;;;;;;;12.50;7.70;;;-0.10;99.90;;;;;;5054480;28;20453;-59
2024/01/17 03:54:11;;;;;;;10.23;6.93;;;-0.10;99.90;;;;;;5054591;28;20935;-59
2024/01/17 03:56:37;;;;;;;14.13;8.00;;;-0.10;99.90;;;;;;5054747;28;20445;-59
2024/01/17 03:59:05;;;;;;;10.70;7.70;;;-0.10;99.90;;;;;;5054057;28;20438;-59
2024/01/17 04:01:32;;;;;;;14.00;8.77;;;-0.10;99.90;;;;;;5054527;28;20462;-59
2024/01/17 04:03:58;;;;;;;17.27;9.40;;;-0.10;99.90;;;;;;5054540;28;20499;-59
2024/01/17 04:06:28;;;;;;;13.47;9.37;;;-0.10;99.90;;;;;;5054528;28;20441;-59
2024/01/17 04:08:57;;;;;;;13.33;8.93;;;-0.10;99.90;;;;;;5054456;28;20430;-59
2024/01/17 04:11:24;;;;;;;13.60;8.40;;;0.00;99.90;;;;;;5054226;28;20473;-59
2024/01/17 04:13:51;;;;;;;12.80;9.30;;;-0.10;99.90;;;;;;5054149;28;20484;-59
2024/01/17 04:16:18;;;;;;;12.50;9.13;;;0.00;99.90;;;;;;5054047;28;20871;-59
2024/01/17 04:18:45;;;;;;;12.43;8.93;;;0.00;99.90;;;;;;5054306;28;20510;-59
2024/01/17 04:21:18;;;;;;;11.67;8.03;;;0.00;99.90;;;;;;5053780;28;20896;-60
2024/01/17 04:23:45;;;;;;;16.00;9.70;;;0.00;99.90;;;;;;5054282;28;20466;-60
2024/01/17 04:26:21;;;;;;;15.20;11.10;;;0.00;99.90;;;;;;5054135;28;20508;-59
2024/01/17 04:28:48;;;;;;;15.13;10.23;;;0.00;99.90;;;;;;5054321;28;20438;-60
2024/01/17 04:31:23;;;;;;;13.67;9.77;;;0.00;99.90;;;;;;5054422;28;20489;-60
2024/01/17 04:33:50;;;;;;;17.30;9.70;;;0.10;99.90;;;;;;5055000;28;20445;-60
2024/01/17 04:36:17;;;;;;;13.60;9.27;;;0.10;99.90;;;;;;5054663;28;20528;-59
2024/01/17 04:38:44;;;;;;;16.00;9.23;;;0.10;99.90;;;;;;5054298;28;20503;-59
2024/01/17 04:41:12;;;;;;;14.40;9.97;;;0.10;99.90;;;;;;5054027;28;20885;-59
2024/01/17 04:43:40;;;;;;;14.17;10.67;;;0.10;99.90;;;;;;5054089;28;20446;-59
2024/01/17 04:46:07;;;;;;;16.00;9.87;;;0.10;99.90;;;;;;5053942;28;20441;-59
2024/01/17 04:48:35;;;;;;;17.00;10.00;;;0.20;99.90;;;;;;5053948;28;20552;-59
2024/01/17 04:51:04;;;;;;;13.70;10.30;;;0.10;99.90;;;;;;5053378;28;20833;-59
2024/01/17 04:53:31;;;;;;;21.27;11.30;;;0.20;99.90;;;;;;5053535;28;20453;-59
2024/01/17 04:55:58;;;;;;;16.77;11.40;;;0.20;99.90;;;;;;5053671;28;20936;-59
2024/01/17 04:58:24;;;;;;;16.03;12.40;;;0.20;99.90;;;;;;5053290;28;20449;-59
2024/01/17 05:00:52;;;;;;;15.37;9.87;;;0.20;99.90;;;;;;5053535;28;20489;-59
2024/01/17 05:03:19;;;;;;;17.53;9.40;;;0.20;99.90;;;;;;5053319;28;20445;-59
2024/01/17 05:05:46;;;;;;;17.57;10.50;;;0.20;99.90;;;;;;5053564;28;20449;-59
2024/01/17 05:08:13;;;;;;;13.67;10.30;;;0.20;99.90;;;;;;5053590;28;20446;-59
2024/01/17 05:10:42;;;;;;;17.20;11.97;;;0.20;99.90;;;;;;5052459;28;20544;-59
2024/01/17 05:13:09;;;;;;;14.10;10.47;;;0.20;99.90;;;;;;5053362;28;20473;-59
2024/01/17 05:15:36;;;;;;;17.93;11.37;;;0.20;99.90;;;;;;5053072;28;20940;-59
2024/01/17 05:18:04;;;;;;;14.00;9.63;;;0.20;99.90;;;;;;5053439;28;20450;-59
2024/01/17 05:20:31;;;;;;;13.97;10.80;;;0.20;99.90;;;;;;5052957;28;21072;-59
2024/01/17 05:22:58;;;;;;;11.07;9.67;;;0.20;99.90;;;;;;5053310;28;20446;-59
2024/01/17 05:25:25;;;;;;;17.53;11.07;;;0.20;99.90;;;;;;5053070;28;20962;-59
2024/01/17 05:27:52;;;;;;;20.90;12.37;;;0.20;99.90;;;;;;5053370;28;20453;-59
2024/01/17 05:30:19;;;;;;;17.40;10.67;;;0.20;99.90;;;;;;5052791;28;20489;-59
2024/01/17 05:32:46;;;;;;;18.00;10.57;;;0.20;99.90;;;;;;5053008;28;20480;-59
2024/01/17 05:35:15;;;;;;;19.80;12.30;;;0.20;99.90;;;;;;5053244;28;20449;-59
2024/01/17 05:37:41;;;;;;;16.50;10.83;;;0.30;99.90;;;;;;5053139;28;20481;-59
2024/01/17 05:40:09;;;;;;;20.47;11.33;;;0.30;99.90;;;;;;5052810;28;20513;-59
2024/01/17 05:42:36;;;;;;;17.00;12.30;;;0.30;99.90;;;;;;5052797;28;20819;-59
2024/01/17 05:45:03;;;;;;;14.53;11.17;;;0.30;99.90;;;;;;5052788;28;20472;-59
2024/01/17 05:47:30;;;;;;;16.70;11.20;;;0.30;99.90;;;;;;5052658;28;20795;-59
2024/01/17 05:49:57;;;;;;;15.63;10.97;;;0.30;99.90;;;;;;5053031;28;20462;-59
2024/01/17 05:52:25;;;;;;;15.13;11.47;;;0.30;99.90;;;;;;5052641;28;20457;-59
2024/01/17 05:54:52;;;;;;;21.50;11.20;;;0.30;99.90;;;;;;5052951;28;20445;-59
2024/01/17 05:57:19;;;;;;;21.13;12.53;;;0.30;99.90;;;;;;5053077;28;20873;-59
2024/01/17 05:59:45;;;;;;;19.23;12.50;;;0.30;99.90;;;;;;5052807;28;20477;-59
2024/01/17 06:02:12;;;;;;;20.63;11.23;;;0.20;99.90;;;;;;5052924;28;20456;-59
2024/01/17 06:04:39;;;;;;;20.77;13.37;;;0.30;99.90;;;;;;5052971;28;20441;-59
2024/01/17 06:07:05;;;;;;;19.73;12.30;;;0.30;99.90;;;;;;5052929;28;20448;-59
2024/01/17 06:09:33;;;;;;;21.50;12.80;;;0.20;99.90;;;;;;5052887;28;20453;-59
2024/01/17 06:12:00;;;;;;;18.23;11.03;;;0.30;99.90;;;;;;5052555;28;20951;-59
2024/01/17 06:14:27;;;;;;;17.70;11.70;;;0.30;99.90;;;;;;5052458;28;20944;-58
2024/01/17 06:16:54;;;;;;;17.43;11.43;;;0.30;99.90;;;;;;5052829;28;20445;-58
2024/01/17 06:19:21;;;;;;;15.97;11.50;;;0.30;99.90;;;;;;5052734;28;20483;-59
2024/01/17 06:21:47;;;;;;;16.60;11.87;;;0.30;99.90;;;;;;5055220;28;20867;-58
2024/01/17 06:24:14;;;;;;;19.93;12.93;;;0.30;99.90;;;;;;5057168;28;20444;-59
2024/01/17 06:26:42;;;;;;;18.20;12.47;;;0.40;99.90;;;;;;5056548;28;20441;-58
2024/01/17 06:29:09;;;;;;;16.63;11.97;;;0.40;99.90;;;;;;5056496;28;20445;-59
2024/01/17 06:31:36;;;;;;;18.43;11.83;;;0.40;99.90;;;;;;5056570;28;20548;-59
2024/01/17 06:34:03;;;;;;;19.63;11.50;;;0.40;99.90;;;;;;5056039;28;20935;-58
2024/01/17 06:36:30;;;;;;;26.10;12.90;;;0.30;99.90;;;;;;5056258;28;20441;-58
2024/01/17 06:38:56;;;;;;;15.90;11.17;;;0.40;99.90;;;;;;5056320;28;20441;-58
2024/01/17 06:41:23;;;;;;;17.80;12.10;;;0.40;99.90;;;;;;5055859;28;20979;-59
2024/01/17 06:43:51;;;;;;;19.00;12.50;;;0.40;99.90;;;;;;5056385;28;20441;-59
2024/01/17 06:46:18;;;;;;;17.47;11.90;;;0.40;99.90;;;;;;5056174;28;20445;-59
2024/01/17 06:48:46;;;;;;;21.17;11.00;;;0.40;99.90;;;;;;5056204;28;20453;-58
2024/01/17 06:51:12;;;;;;;16.43;11.43;;;0.40;99.90;;;;;;5055895;28;20493;-58
2024/01/17 06:53:39;;;;;;;20.03;11.93;;;0.40;99.90;;;;;;5055841;28;20449;-59
2024/01/17 06:56:07;;;;;;;15.43;10.93;;;0.40;99.90;;;;;;5056298;28;20449;-59
2024/01/17 06:58:33;;;;;;;19.70;12.50;;;0.40;99.90;;;;;;5055662;28;20861;-59
2024/01/17 07:01:02;;;;;;;15.93;11.70;;;0.40;99.90;;;;;;5055620;28;20490;-58
2024/01/17 07:03:28;;;;;;;18.03;11.07;;;0.40;99.90;;;;;;5055773;28;20441;-59
2024/01/17 07:05:55;;;;;;;14.30;10.43;;;0.40;99.90;;;;;;5055789;28;20453;-59
2024/01/17 07:08:22;;;;;;;19.87;10.80;;;0.40;99.90;;;;;;5055590;28;20460;-58
2024/01/17 07:10:48;;;;;;;19.50;11.63;;;0.40;99.90;;;;;;5055527;28;20458;-59
2024/01/17 07:13:15;;;;;;;15.97;11.40;;;0.40;99.90;;;;;;5055455;28;20560;-60
2024/01/17 07:15:42;;;;;;;17.47;11.57;;;0.40;99.90;;;;;;5055531;28;20446;-60
2024/01/17 07:18:10;;;;;;;18.90;10.77;;;0.50;99.90;;;;;;5055508;28;20449;-60
2024/01/17 07:20:37;;;;;;;19.93;12.37;;;0.50;99.90;;;;;;5055249;28;20568;-60
2024/01/17 07:23:05;;;;;;;14.27;10.63;;;0.50;99.90;;;;;;5055042;28;21013;-58
2024/01/17 07:25:32;;;;;;;17.03;11.97;;;0.50;99.90;;;;;;5055316;28;20442;-57
2024/01/17 07:27:59;;;;;;;20.77;11.77;;;0.50;99.90;;;;;;5055311;28;20451;-57
2024/01/17 07:30:26;;;;;;;18.40;11.80;;;0.50;99.90;;;;;;5055329;28;20462;-58
2024/01/17 07:32:52;;;;;;;18.40;12.80;;;0.50;99.90;;;;;;5054197;28;20508;-59
2024/01/17 07:35:20;;;;;;;16.87;11.20;;;0.50;99.90;;;;;;5055197;28;20442;-60
2024/01/17 07:37:48;;;;;;;17.17;11.60;;;0.50;99.90;;;;;;5055322;28;20445;-60
2024/01/17 07:40:15;;;;;;;18.83;11.20;;;0.50;99.90;;;;;;5055036;28;20469;-60
2024/01/17 07:42:42;;;;;;;19.20;11.70;;;0.50;99.90;;;;;;5055488;28;20495;-60
2024/01/17 07:45:10;;;;;;;16.10;11.50;;;0.50;99.90;;;;;;5055258;28;20446;-60
2024/01/17 07:47:37;;;;;;;15.20;11.47;;;0.50;99.90;;;;;;5055089;28;20481;-60
2024/01/17 07:50:04;;;;;;;24.83;12.77;;;0.50;99.90;;;;;;5054683;28;20979;-60
2024/01/17 07:52:32;;;;;;;28.07;15.07;;;0.60;99.90;;;;;;5054610;28;20458;-60
2024/01/17 07:54:59;;;;;;;30.03;15.83;;;0.60;99.90;;;;;;5054797;28;20448;-58
2024/01/17 07:57:25;;;;;;;25.20;13.50;;;0.60;99.90;;;;;;5054658;28;20452;-57
2024/01/17 07:59:52;;;;;;;18.20;11.97;;;0.60;99.90;;;;;;5054683;28;20461;-58
2024/01/17 08:02:19;;;;;;;30.23;12.83;;;0.60;99.90;;;;;;5054672;28;20477;-57
2024/01/17 08:04:45;;;;;;;26.67;14.27;;;0.70;99.90;;;;;;5054672;28;20446;-58
2024/01/17 08:07:13;;;;;;;19.40;13.40;;;0.70;99.90;;;;;;5054912;28;20442;-58
2024/01/17 08:09:41;;;;;;;16.90;11.73;;;0.70;99.90;;;;;;5054569;28;20477;-58
2024/01/17 08:12:09;;;;;;;19.47;12.23;;;0.70;99.90;;;;;;5054486;28;20520;-58
2024/01/17 08:14:35;;;;;;;18.80;12.60;;;0.80;99.90;;;;;;5054383;28;20484;-58
2024/01/17 08:17:02;;;;;;;19.27;12.70;;;0.80;99.90;;;;;;5054189;28;20790;-58
2024/01/17 08:19:29;;;;;;;17.07;10.80;;;0.80;99.90;;;;;;5054251;28;20442;-58
2024/01/17 08:21:56;;;;;;;16.57;11.20;;;0.80;99.90;;;;;;5054221;28;20477;-58
2024/01/17 08:24:22;;;;;;;15.83;11.60;;;0.90;99.90;;;;;;5054270;28;20446;-58
2024/01/17 08:26:50;;;;;;;20.87;12.00;;;0.90;99.90;;;;;;5054428;28;20449;-58
2024/01/17 08:29:18;;;;;;;22.33;12.83;;;0.90;99.90;;;;;;5054166;28;20444;-58
2024/01/17 08:31:45;;;;;;;24.07;12.33;;;1.00;99.90;;;;;;5054430;28;20572;-58
2024/01/17 08:34:12;;;;;;;19.60;10.60;;;1.00;99.90;;;;;;5053878;28;20445;-58
2024/01/17 08:36:39;;;;;;;21.20;11.50;;;1.00;99.90;;;;;;5054006;28;20481;-58
2024/01/17 08:39:06;;;;;;;17.80;10.53;;;1.00;99.90;;;;;;5053973;28;20449;-58
2024/01/17 08:41:33;;;;;;;16.67;9.93;;;1.00;99.90;;;;;;5053829;28;20489;-58
2024/01/17 08:44:01;;;;;;;16.93;10.80;;;1.00;99.90;;;;;;5053516;28;20445;-58
2024/01/17 08:46:28;;;;;;;22.00;11.90;;;1.10;99.90;;;;;;5053861;28;20503;-58
2024/01/17 08:48:55;;;;;;;16.43;11.50;;;1.10;99.90;;;;;;5053807;28;20445;-58
2024/01/17 08:51:24;;;;;;;16.40;11.23;;;1.10;99.90;;;;;;5053596;28;20454;-58
2024/01/17 08:53:51;;;;;;;15.80;10.10;;;1.20;99.90;;;;;;5053269;28;20976;-58
2024/01/17 08:56:18;;;;;;;17.77;10.30;;;1.20;99.90;;;;;;5053721;28;20448;-58
2024/01/17 08:58:45;;;;;;;15.30;10.20;;;1.30;99.90;;;;;;5053708;28;20495;-58
2024/01/17 09:01:14;;;;;;;18.80;11.40;;;1.30;99.90;;;;;;5053525;28;20492;-58
2024/01/17 09:03:43;;;;;;;15.07;10.80;;;1.30;99.90;;;;;;5053538;28;20445;-58
2024/01/17 09:06:10;;;;;;;15.60;11.03;;;1.40;99.90;;;;;;5053545;28;20504;-58
2024/01/17 09:08:37;;;;;;;17.17;10.23;;;1.40;99.90;;;;;;5053271;28;20978;-58
2024/01/17 09:11:05;;;;;;;18.43;11.70;;;1.40;99.90;;;;;;5053393;28;20466;-57
2024/01/17 09:13:32;;;;;;;14.90;10.07;;;1.40;99.90;;;;;;5053217;28;20454;-58
2024/01/17 09:15:59;;;;;;;14.57;10.23;;;1.50;99.90;;;;;;5053182;28;20954;-58
2024/01/17 09:18:27;;;;;;;18.27;10.40;;;1.50;99.90;;;;;;5053478;28;20815;-59
2024/01/17 09:20:53;;;;;;;19.83;10.50;;;1.50;99.90;;;;;;5053321;28;20497;-58
2024/01/17 09:23:20;;;;;;;14.50;11.17;;;1.60;99.90;;;;;;5053204;28;20450;-58
2024/01/17 09:25:47;;;;;;;18.57;11.07;;;1.60;99.90;;;;;;5052991;28;20455;-58
2024/01/17 09:28:13;;;;;;;16.57;12.00;;;1.60;99.90;;;;;;5053334;28;20445;-58
2024/01/17 09:30:40;;;;;;;17.40;11.33;;;1.60;99.90;;;;;;5053172;28;20464;-58
2024/01/17 09:33:07;;;;;;;22.53;11.83;;;1.70;99.90;;;;;;5053196;28;20438;-58
2024/01/17 09:35:36;;;;;;;26.67;10.73;;;1.70;99.90;;;;;;5052868;28;20932;-58
2024/01/17 09:38:06;;;;;;;18.97;11.23;;;1.70;99.90;;;;;;5053226;28;20449;-58
2024/01/17 09:40:33;;;;;;;22.50;12.60;;;1.80;99.90;;;;;;5053153;28;20527;-58
2024/01/17 09:43:00;;;;;;;18.03;11.50;;;1.80;99.90;;;;;;5053082;28;20488;-58
2024/01/17 09:45:30;;;;;;;14.90;11.57;;;1.80;99.90;;;;;;5052919;28;20852;-59
2024/01/17 09:47:58;;;;;;;15.77;10.43;;;1.90;99.90;;;;;;5053562;28;20871;-58
2024/01/17 09:50:24;;;;;;;16.97;10.50;;;1.90;99.90;;;;;;5053221;28;20470;-58
2024/01/17 09:52:54;;;;;;;24.53;11.40;;;2.00;99.90;;;;;;5052921;28;20465;-59
2024/01/17 09:55:23;;;;;;;14.20;10.80;;;2.00;99.90;;;;;;5053450;28;20458;-59
2024/01/17 09:57:56;;;;;;;14.03;9.90;;;2.10;99.90;;;;;;5057145;28;20453;-58
2024/01/17 10:00:23;;;;;;;15.03;10.50;;;2.00;99.20;;;;;;5057160;28;20548;-59
2024/01/17 10:02:51;;;;;;;18.17;10.80;;;1.90;99.20;;;;;;5057092;28;20477;-58
2024/01/17 10:05:19;;;;;;;14.53;9.13;;;1.80;98.60;;;;;;5057024;28;20853;-59
2024/01/17 10:07:46;;;;;;;15.07;10.07;;;1.80;99.00;;;;;;5056953;28;21006;-59
2024/01/17 10:10:14;;;;;;;12.17;10.20;;;1.80;99.30;;;;;;5056807;28;20567;-59
2024/01/17 10:12:42;;;;;;;17.57;10.53;;;1.70;99.50;;;;;;5056678;28;20438;-58
2024/01/17 10:15:13;;;;;;;19.10;10.77;;;1.80;99.80;;;;;;5056328;28;20966;-58
2024/01/17 10:17:39;;;;;;;15.40;10.17;;;1.80;99.90;;;;;;5056421;28;20804;-58
2024/01/17 10:20:08;;;;;;;17.27;10.40;;;1.80;99.90;;;;;;5056530;28;20975;-59
2024/01/17 10:22:35;;;;;;;16.10;10.97;;;1.90;99.90;;;;;;5056478;28;20513;-58
2024/01/17 10:25:02;;;;;;;20.80;10.30;;;1.90;99.90;;;;;;5056824;28;20442;-58
2024/01/17 10:27:30;;;;;;;14.30;9.60;;;2.00;99.90;;;;;;5056459;28;20450;-58
2024/01/17 10:29:57;;;;;;;17.60;11.30;;;2.00;99.90;;;;;;5056335;28;20839;-58
2024/01/17 10:32:24;;;;;;;17.57;10.10;;;2.10;99.90;;;;;;5056461;28;20441;-58
2024/01/17 10:34:51;;;;;;;14.87;11.10;;;2.10;99.90;;;;;;5056371;28;20441;-58
2024/01/17 10:37:18;;;;;;;17.00;11.43;;;2.10;99.90;;;;;;5056272;28;20448;-59
2024/01/17 10:39:45;;;;;;;17.97;10.60;;;2.20;99.90;;;;;;5056521;28;20461;-58
2024/01/17 10:42:20;;;;;;;17.13;11.53;;;2.20;99.90;;;;;;5056091;28;20477;-58
2024/01/17 10:44:48;;;;;;;17.87;10.10;;;2.20;99.90;;;;;;5056244;28;20429;-59
2024/01/17 10:47:15;;;;;;;15.70;10.90;;;2.20;99.90;;;;;;5056227;28;20446;-59
2024/01/17 10:49:43;;;;;;;15.00;11.47;;;2.20;99.90;;;;;;5056341;28;20470;-59
2024/01/17 10:52:14;;;;;;;17.60;11.23;;;2.30;99.90;;;;;;5056472;28;20504;-58
2024/01/17 10:54:49;;;;;;;14.80;10.63;;;2.30;99.90;;;;;;5057747;28;20469;-58
2024/01/17 10:57:16;;;;;;;16.20;11.53;;;2.30;99.90;;;;;;5056562;28;20433;-58
2024/01/17 10:59:46;;;;;;;16.23;10.93;;;2.40;99.90;;;;;;5056249;28;20466;-58
2024/01/17 11:02:19;;;;;;;17.67;12.60;;;2.40;99.90;;;;;;5056327;28;20462;-59
2024/01/17 11:04:47;;;;;;;17.83;13.60;;;2.40;99.90;;;;;;5056339;28;20426;-58
2024/01/17 11:07:16;;;;;;;20.20;11.53;;;2.50;99.90;;;;;;5054658;28;20448;-61
2024/01/17 11:09:46;;;;;;;16.40;11.60;;;2.50;99.90;;;;;;5055949;28;20505;-59
2024/01/17 11:12:15;;;;;;;15.00;11.13;;;2.50;99.90;;;;;;5055911;28;20810;-59
2024/01/17 11:14:43;;;;;;;17.33;11.97;;;2.50;99.90;;;;;;5055577;28;20481;-59
2024/01/17 11:17:11;;;;;;;20.90;12.10;;;2.60;99.90;;;;;;5055943;28;20445;-58
2024/01/17 11:19:41;;;;;;;16.17;10.57;;;2.60;99.90;;;;;;5055538;28;20446;-58
2024/01/17 11:22:08;;;;;;;20.67;11.40;;;2.60;99.80;;;;;;5055710;28;20484;-59
2024/01/17 11:24:41;;;;;;;16.07;11.07;;;2.70;99.80;;;;;;5055546;28;20454;-58
2024/01/17 11:27:29;;;;;;;15.03;11.23;;;2.70;99.70;;;;;;5055609;28;20501;-58
2024/01/17 11:30:06;;;;;;;18.20;11.13;;;2.70;99.70;;;;;;5055360;28;20476;-58
2024/01/17 11:32:52;;;;;;;15.07;10.60;;;2.80;99.70;;;;;;5055329;28;20543;-58
2024/01/17 11:35:42;;;;;;;17.97;11.10;;;2.80;99.60;;;;;;5055189;28;20437;-59
2024/01/17 11:38:28;;;;;;;18.67;10.07;;;2.80;99.10;;;;;;5055312;28;20499;-58
2024/01/17 11:40:57;;;;;;;20.83;10.40;;;2.80;99.30;;;;;;5055913;28;20488;-58
2024/01/17 11:43:24;;;;;;;17.47;11.53;;;2.80;99.50;;;;;;5055024;28;20528;-58
2024/01/17 11:45:53;;;;;;;23.50;12.00;;;2.80;99.70;;;;;;5054978;28;20452;-58
2024/01/17 11:48:23;;;;;;;20.43;12.20;;;2.80;99.90;;;;;;5054777;28;20939;-59
2024/01/17 11:51:14;;;;;;;18.47;12.60;;;2.80;99.90;;;;;;5054587;28;20996;-59
2024/01/17 11:53:42;;;;;;;16.50;11.43;;;2.80;99.90;;;;;;5054460;28;20445;-58
2024/01/17 11:56:12;;;;;;;20.00;13.33;;;2.80;99.90;;;;;;5054847;28;20449;-58
2024/01/17 11:58:40;;;;;;;20.60;12.30;;;2.80;99.90;;;;;;5054786;28;20453;-59
2024/01/17 12:01:07;;;;;;;15.50;12.20;;;2.80;99.90;;;;;;5054801;28;20906;-59
2024/01/17 12:03:34;;;;;;;22.60;13.00;;;2.80;99.90;;;;;;5054618;28;20485;-58
2024/01/17 12:06:02;;;;;;;19.23;12.70;;;2.80;99.90;;;;;;5054652;28;20833;-59
2024/01/17 12:08:29;;;;;;;17.53;12.60;;;2.80;99.90;;;;;;5054695;28;20452;-59
2024/01/17 12:10:57;;;;;;;17.10;11.90;;;2.80;99.90;;;;;;5054202;28;20841;-59
2024/01/17 12:13:24;;;;;;;15.60;12.37;;;2.70;99.90;;;;;;5054845;28;20433;-59
2024/01/17 12:15:54;;;;;;;15.53;12.10;;;2.70;99.90;;;;;;5054351;28;20441;-59
2024/01/17 12:18:21;;;;;;;16.47;12.33;;;2.70;99.90;;;;;;5053998;28;20473;-59
2024/01/17 12:20:49;;;;;;;14.80;11.87;;;2.60;99.90;;;;;;5054255;28;20502;-59
2024/01/17 12:23:19;;;;;;;22.77;11.67;;;2.60;99.90;;;;;;5054160;28;20488;-59
2024/01/17 12:25:45;;;;;;;25.73;13.90;;;2.60;99.90;;;;;;5054200;28;20491;-59
2024/01/17 12:28:19;;;;;;;17.40;13.63;;;2.60;99.90;;;;;;5054297;28;20815;-59
2024/01/17 12:30:58;;;;;;;22.23;13.83;;;2.50;99.90;;;;;;5054232;28;20469;-59
2024/01/17 12:33:26;;;;;;;21.30;13.23;;;2.50;99.90;;;;;;5054203;28;20796;-59
2024/01/17 12:35:54;;;;;;;15.27;12.60;;;2.50;99.90;;;;;;5053622;28;20943;-61
2024/01/17 12:38:22;;;;;;;18.97;13.67;;;2.40;99.90;;;;;;5054583;28;20441;-60
2024/01/17 12:40:49;;;;;;;20.40;14.60;;;2.40;99.90;;;;;;5053760;28;20976;-60
2024/01/17 12:43:17;;;;;;;21.03;14.30;;;2.30;99.90;;;;;;5053637;28;20520;-61